ICAO code: LHPR | IATA code: QGY | SITA: QGYAPXH | AFTN: LHPRZPZX

Időjárási adatok

METAR LHPR 231945Z AUTO 33007KT CAVOK 20/12 Q1015=
TAF LHPR 231715Z 2318/2403 35013KT CAVOK
BECMG 2318/2320 36008KT
TEMPO 2323/2403 FEW030 BKN050=
Nem volt érdemleges időjárási jelenség az elmúlt órában
2024-06-23 19:50:00 UTC
-

Hőmérséklet
19.5 °C
 
Harmatpont
12.4 °C
 
Rel. páratartalom
63%
 
QNH
1015.4 hPa
 
Szélsebesség
3.0 m/s
Max
4.1 m/s
Szélirány
330°
 
Csapadék (1 óra)
0.0 mm
 
Látótávolság
m
 
RVR
>1500 m RWY29
 
1. felhőréteg mennyisége
0 octa
 
1. felhőréteg alapja
m